sensor_id;sensor_type;location;lat;lon;timestamp;pressure;altitude;pressure_sealevel;temperature;humidity
13867;BME280;7003;46.982;15.248;2023-02-08T05:02:03;99372.03;;;-9.32;100.00
13867;BME280;7003;46.982;15.248;2023-02-08T05:04:32;99368.00;;;-9.17;100.00
13867;BME280;7003;46.982;15.248;2023-02-08T05:07:03;99377.13;;;-9.22;100.00
13867;BME280;7003;46.982;15.248;2023-02-08T05:09:33;99373.34;;;-9.28;100.00
13867;BME280;7003;46.982;15.248;2023-02-08T05:12:00;99372.59;;;-9.38;100.00
13867;BME280;7003;46.982;15.248;2023-02-08T05:14:30;99376.94;;;-9.39;100.00
13867;BME280;7003;46.982;15.248;2023-02-08T05:16:59;99388.44;;;-9.33;100.00
13867;BME280;7003;46.982;15.248;2023-02-08T05:19:28;99387.75;;;-9.35;100.00
13867;BME280;7003;46.982;15.248;2023-02-08T05:21:58;99383.91;;;-9.21;100.00
13867;BME280;7003;46.982;15.248;2023-02-08T05:24:25;99398.13;;;-9.45;100.00
13867;BME280;7003;46.982;15.248;2023-02-08T05:26:52;99398.06;;;-9.35;100.00
13867;BME280;7003;46.982;15.248;2023-02-08T05:29:22;99401.56;;;-9.26;100.00
13867;BME280;7003;46.982;15.248;2023-02-08T05:31:51;99397.03;;;-8.97;100.00
13867;BME280;7003;46.982;15.248;2023-02-08T05:34:20;99396.88;;;-8.96;100.00
13867;BME280;7003;46.982;15.248;2023-02-08T05:36:49;99394.13;;;-8.84;100.00
13867;BME280;7003;46.982;15.248;2023-02-08T05:39:16;99391.84;;;-8.70;100.00
13867;BME280;7003;46.982;15.248;2023-02-08T05:41:43;99392.50;;;-8.68;100.00
13867;BME280;7003;46.982;15.248;2023-02-08T05:44:13;99379.16;;;-8.63;100.00
13867;BME280;7003;46.982;15.248;2023-02-08T05:46:42;99386.44;;;-8.59;100.00
13867;BME280;7003;46.982;15.248;2023-02-08T05:49:10;99387.44;;;-8.51;100.00
13867;BME280;7003;46.982;15.248;2023-02-08T05:51:39;99384.09;;;-8.52;100.00
13867;BME280;7003;46.982;15.248;2023-02-08T05:54:07;99372.66;;;-8.24;100.00
13867;BME280;7003;46.982;15.248;2023-02-08T05:56:35;99371.28;;;-8.36;100.00
13867;BME280;7003;46.982;15.248;2023-02-08T05:59:05;99380.69;;;-8.27;100.00
13867;BME280;7003;46.982;15.248;2023-02-08T06:01:35;99383.31;;;-8.19;100.00
13867;BME280;7003;46.982;15.248;2023-02-08T06:04:05;99380.44;;;-8.16;100.00
13867;BME280;7003;46.982;15.248;2023-02-08T06:06:37;99382.16;;;-8.24;100.00
13867;BME280;7003;46.982;15.248;2023-02-08T06:09:05;99391.19;;;-8.02;100.00
13867;BME280;7003;46.982;15.248;2023-02-08T06:11:36;99399.53;;;-8.08;100.00
13867;BME280;7003;46.982;15.248;2023-02-08T06:14:04;99405.59;;;-8.18;100.00
13867;BME280;7003;46.982;15.248;2023-02-08T06:16:33;99412.16;;;-8.05;100.00
13867;BME280;7003;46.982;15.248;2023-02-08T06:19:03;99418.50;;;-8.18;100.00
13867;BME280;7003;46.982;15.248;2023-02-08T06:21:31;99425.22;;;-8.07;100.00
13867;BME280;7003;46.982;15.248;2023-02-08T06:24:02;99428.81;;;-8.00;100.00
13867;BME280;7003;46.982;15.248;2023-02-08T06:26:32;99438.25;;;-7.91;100.00
13867;BME280;7003;46.982;15.248;2023-02-08T06:29:04;99445.59;;;-7.78;100.00
13867;BME280;7003;46.982;15.248;2023-02-08T06:31:32;99447.66;;;-7.56;100.00
13867;BME280;7003;46.982;15.248;2023-02-08T06:34:00;99452.00;;;-7.30;100.00
13867;BME280;7003;46.982;15.248;2023-02-08T06:36:28;99460.09;;;-7.25;100.00
13867;BME280;7003;46.982;15.248;2023-02-08T06:38:57;99469.16;;;-7.21;100.00
13867;BME280;7003;46.982;15.248;2023-02-08T06:41:26;99470.94;;;-7.22;100.00
13867;BME280;7003;46.982;15.248;2023-02-08T06:43:55;99475.59;;;-7.25;100.00
13867;BME280;7003;46.982;15.248;2023-02-08T06:46:26;99478.19;;;-7.25;100.00
13867;BME280;7003;46.982;15.248;2023-02-08T06:48:55;99478.56;;;-7.20;100.00
13867;BME280;7003;46.982;15.248;2023-02-08T06:51:27;99482.91;;;-7.21;100.00
13867;BME280;7003;46.982;15.248;2023-02-08T06:53:56;99482.00;;;-7.04;100.00
13867;BME280;7003;46.982;15.248;2023-02-08T06:56:24;99482.22;;;-6.97;100.00
13867;BME280;7003;46.982;15.248;2023-02-08T06:58:56;99499.63;;;-7.07;100.00
13867;BME280;7003;46.982;15.248;2023-02-08T07:01:26;99502.72;;;-6.95;100.00
13867;BME280;7003;46.982;15.248;2023-02-08T07:03:58;99505.09;;;-7.10;100.00
13867;BME280;7003;46.982;15.248;2023-02-08T07:06:27;99503.72;;;-6.88;100.00
13867;BME280;7003;46.982;15.248;2023-02-08T07:08:55;99498.28;;;-6.77;100.00
13867;BME280;7003;46.982;15.248;2023-02-08T07:11:24;99492.50;;;-6.63;100.00
13867;BME280;7003;46.982;15.248;2023-02-08T07:13:53;99491.00;;;-6.82;100.00
13867;BME280;7003;46.982;15.248;2023-02-08T07:16:25;99494.84;;;-6.86;100.00
13867;BME280;7003;46.982;15.248;2023-02-08T07:18:55;99487.13;;;-6.70;100.00
13867;BME280;7003;46.982;15.248;2023-02-08T07:21:26;99494.94;;;-6.62;100.00
13867;BME280;7003;46.982;15.248;2023-02-08T07:23:57;99499.25;;;-6.78;100.00
13867;BME280;7003;46.982;15.248;2023-02-08T07:26:29;99496.22;;;-6.57;100.00
13867;BME280;7003;46.982;15.248;2023-02-08T07:29:00;99493.13;;;-6.69;100.00
13867;BME280;7003;46.982;15.248;2023-02-08T07:31:33;99489.53;;;-6.84;100.00
13867;BME280;7003;46.982;15.248;2023-02-08T07:34:02;99482.59;;;-6.76;100.00
13867;BME280;7003;46.982;15.248;2023-02-08T07:36:31;99491.31;;;-6.77;100.00
13867;BME280;7003;46.982;15.248;2023-02-08T07:39:01;99505.78;;;-6.50;100.00
13867;BME280;7003;46.982;15.248;2023-02-08T07:41:33;99497.41;;;-6.44;100.00
13867;BME280;7003;46.982;15.248;2023-02-08T07:44:01;99499.50;;;-6.39;100.00
13867;BME280;7003;46.982;15.248;2023-02-08T07:46:34;99493.84;;;-6.43;100.00
13867;BME280;7003;46.982;15.248;2023-02-08T07:49:06;99500.13;;;-6.53;100.00
13867;BME280;7003;46.982;15.248;2023-02-08T07:51:35;99499.47;;;-6.47;100.00
13867;BME280;7003;46.982;15.248;2023-02-08T07:54:03;99502.06;;;-6.47;100.00
13867;BME280;7003;46.982;15.248;2023-02-08T07:56:30;99506.34;;;-6.22;100.00
13867;BME280;7003;46.982;15.248;2023-02-08T07:58:58;99497.41;;;-6.11;100.00
13867;BME280;7003;46.982;15.248;2023-02-08T08:01:28;99491.63;;;-6.05;100.00
13867;BME280;7003;46.982;15.248;2023-02-08T08:03:59;99506.34;;;-5.98;100.00
13867;BME280;7003;46.982;15.248;2023-02-08T08:06:27;99505.66;;;-5.84;100.00
13867;BME280;7003;46.982;15.248;2023-02-08T08:08:55;99502.81;;;-5.89;100.00
13867;BME280;7003;46.982;15.248;2023-02-08T08:11:23;99511.84;;;-5.93;100.00
13867;BME280;7003;46.982;15.248;2023-02-08T08:13:51;99529.81;;;-5.83;100.00
13867;BME280;7003;46.982;15.248;2023-02-08T08:16:19;99534.50;;;-5.54;100.00
13867;BME280;7003;46.982;15.248;2023-02-08T08:18:47;99527.38;;;-5.60;100.00
13867;BME280;7003;46.982;15.248;2023-02-08T08:21:17;99531.59;;;-5.59;100.00
13867;BME280;7003;46.982;15.248;2023-02-08T08:23:44;99532.56;;;-5.52;100.00
13867;BME280;7003;46.982;15.248;2023-02-08T08:26:16;99531.22;;;-5.40;100.00
13867;BME280;7003;46.982;15.248;2023-02-08T08:28:45;99529.94;;;-5.36;100.00
13867;BME280;7003;46.982;15.248;2023-02-08T08:31:14;99515.38;;;-5.53;100.00
13867;BME280;7003;46.982;15.248;2023-02-08T08:33:45;99521.66;;;-5.39;100.00
13867;BME280;7003;46.982;15.248;2023-02-08T08:36:13;99524.41;;;-5.33;100.00
13867;BME280;7003;46.982;15.248;2023-02-08T08:38:45;99535.41;;;-5.15;100.00
13867;BME280;7003;46.982;15.248;2023-02-08T08:41:16;99543.63;;;-5.03;100.00
13867;BME280;7003;46.982;15.248;2023-02-08T08:43:45;99546.69;;;-4.91;100.00
13867;BME280;7003;46.982;15.248;2023-02-08T08:46:13;99543.59;;;-4.95;100.00
13867;BME280;7003;46.982;15.248;2023-02-08T08:48:44;99552.41;;;-4.57;100.00
13867;BME280;7003;46.982;15.248;2023-02-08T08:51:12;99554.69;;;-4.31;100.00
13867;BME280;7003;46.982;15.248;2023-02-08T08:53:40;99545.50;;;-4.11;100.00
13867;BME280;7003;46.982;15.248;2023-02-08T08:56:11;99556.34;;;-4.07;100.00
13867;BME280;7003;46.982;15.248;2023-02-08T08:58:41;99567.84;;;-4.02;100.00
13867;BME280;7003;46.982;15.248;2023-02-08T09:01:09;99577.91;;;-3.76;100.00
13867;BME280;7003;46.982;15.248;2023-02-08T09:03:41;99582.34;;;-3.62;100.00
13867;BME280;7003;46.982;15.248;2023-02-08T09:06:09;99583.03;;;-3.45;100.00
13867;BME280;7003;46.982;15.248;2023-02-08T09:08:37;99576.75;;;-3.51;100.00
13867;BME280;7003;46.982;15.248;2023-02-08T09:11:09;99573.28;;;-3.66;100.00
13867;BME280;7003;46.982;15.248;2023-02-08T09:13:38;99563.28;;;-3.77;100.00
13867;BME280;7003;46.982;15.248;2023-02-08T09:16:08;99568.44;;;-3.69;100.00
13867;BME280;7003;46.982;15.248;2023-02-08T09:18:38;99556.75;;;-3.50;100.00
13867;BME280;7003;46.982;15.248;2023-02-08T09:21:17;99546.75;;;-2.94;100.00
13867;BME280;7003;46.982;15.248;2023-02-08T09:23:45;99538.63;;;-2.41;100.00
13867;BME280;7003;46.982;15.248;2023-02-08T09:26:15;99539.63;;;-2.20;100.00
13867;BME280;7003;46.982;15.248;2023-02-08T09:28:44;99543.63;;;-1.82;100.00
13867;BME280;7003;46.982;15.248;2023-02-08T09:31:16;99546.22;;;-1.61;100.00
13867;BME280;7003;46.982;15.248;2023-02-08T09:33:46;99549.91;;;-1.55;100.00
13867;BME280;7003;46.982;15.248;2023-02-08T09:36:17;99550.50;;;-1.32;100.00
13867;BME280;7003;46.982;15.248;2023-02-08T09:38:45;99552.09;;;-1.31;100.00
13867;BME280;7003;46.982;15.248;2023-02-08T09:41:26;99554.03;;;-1.11;100.00
13867;BME280;7003;46.982;15.248;2023-02-08T09:44:12;99549.66;;;-1.04;100.00
13867;BME280;7003;46.982;15.248;2023-02-08T09:46:46;99555.81;;;-1.19;100.00
13867;BME280;7003;46.982;15.248;2023-02-08T09:49:20;99554.22;;;-1.41;100.00
13867;BME280;7003;46.982;15.248;2023-02-08T09:51:56;99550.81;;;-0.79;100.00
13867;BME280;7003;46.982;15.248;2023-02-08T09:54:31;99552.34;;;-0.57;100.00
13867;BME280;7003;46.982;15.248;2023-02-08T09:57:00;99553.94;;;-0.62;100.00
13867;BME280;7003;46.982;15.248;2023-02-08T09:59:32;99558.25;;;-0.76;100.00
13867;BME280;7003;46.982;15.248;2023-02-08T10:02:10;99563.00;;;-0.52;100.00
13867;BME280;7003;46.982;15.248;2023-02-08T10:04:54;99557.38;;;-0.55;100.00
13867;BME280;7003;46.982;15.248;2023-02-08T10:07:24;99558.22;;;-0.48;100.00
13867;BME280;7003;46.982;15.248;2023-02-08T10:09:53;99553.25;;;-0.77;100.00
13867;BME280;7003;46.982;15.248;2023-02-08T10:12:31;99549.53;;;-0.55;100.00
13867;BME280;7003;46.982;15.248;2023-02-08T10:15:17;99547.97;;;-0.36;100.00
13867;BME280;7003;46.982;15.248;2023-02-08T10:18:11;99548.47;;;-0.13;100.00
13867;BME280;7003;46.982;15.248;2023-02-08T10:20:51;99543.69;;;0.04;100.00
13867;BME280;7003;46.982;15.248;2023-02-08T10:23:36;99540.78;;;-0.28;100.00
13867;BME280;7003;46.982;15.248;2023-02-08T10:26:16;99545.44;;;-0.17;100.00
13867;BME280;7003;46.982;15.248;2023-02-08T10:29:11;99551.97;;;0.20;100.00
13867;BME280;7003;46.982;15.248;2023-02-08T10:31:54;99546.31;;;0.17;100.00
13867;BME280;7003;46.982;15.248;2023-02-08T10:34:35;99548.34;;;0.21;100.00
13867;BME280;7003;46.982;15.248;2023-02-08T10:37:15;99552.16;;;0.25;100.00
13867;BME280;7003;46.982;15.248;2023-02-08T10:39:48;99545.53;;;0.43;100.00
13867;BME280;7003;46.982;15.248;2023-02-08T10:42:19;99546.56;;;0.61;100.00
13867;BME280;7003;46.982;15.248;2023-02-08T10:44:58;99536.88;;;0.22;100.00
13867;BME280;7003;46.982;15.248;2023-02-08T10:47:40;99529.97;;;-0.12;100.00
13867;BME280;7003;46.982;15.248;2023-02-08T10:50:16;99529.41;;;0.13;100.00
13867;BME280;7003;46.982;15.248;2023-02-08T10:52:49;99528.81;;;0.44;100.00
13867;BME280;7003;46.982;15.248;2023-02-08T10:55:19;99527.78;;;0.77;100.00
13867;BME280;7003;46.982;15.248;2023-02-08T10:57:48;99525.38;;;0.63;100.00
13867;BME280;7003;46.982;15.248;2023-02-08T11:00:19;99525.66;;;1.26;100.00
13867;BME280;7003;46.982;15.248;2023-02-08T11:02:51;99522.31;;;1.05;100.00
13867;BME280;7003;46.982;15.248;2023-02-08T11:05:21;99525.38;;;0.76;100.00
13867;BME280;7003;46.982;15.248;2023-02-08T11:08:08;99516.13;;;0.14;100.00
13867;BME280;7003;46.982;15.248;2023-02-08T11:10:38;99511.69;;;0.34;100.00
13867;BME280;7003;46.982;15.248;2023-02-08T11:13:14;99510.88;;;0.21;100.00
13867;BME280;7003;46.982;15.248;2023-02-08T11:15:45;99519.50;;;0.08;100.00
13867;BME280;7003;46.982;15.248;2023-02-08T11:18:21;99519.75;;;0.13;100.00
13867;BME280;7003;46.982;15.248;2023-02-08T11:20:51;99514.59;;;-0.34;100.00
13867;BME280;7003;46.982;15.248;2023-02-08T11:23:22;99516.25;;;-0.20;100.00
13867;BME280;7003;46.982;15.248;2023-02-08T11:25:51;99510.84;;;-0.06;100.00
13867;BME280;7003;46.982;15.248;2023-02-08T11:28:27;99511.56;;;-0.38;100.00
13867;BME280;7003;46.982;15.248;2023-02-08T11:31:00;99513.16;;;-0.44;100.00
13867;BME280;7003;46.982;15.248;2023-02-08T11:33:29;99507.75;;;-0.35;100.00
13867;BME280;7003;46.982;15.248;2023-02-08T11:36:03;99505.59;;;-0.25;100.00
13867;BME280;7003;46.982;15.248;2023-02-08T11:38:35;99502.72;;;-0.30;100.00
13867;BME280;7003;46.982;15.248;2023-02-08T11:41:04;99488.84;;;-0.38;100.00
13867;BME280;7003;46.982;15.248;2023-02-08T11:43:53;99491.44;;;-0.38;100.00
13867;BME280;7003;46.982;15.248;2023-02-08T11:46:27;99481.81;;;-0.30;100.00
13867;BME280;7003;46.982;15.248;2023-02-08T11:48:57;99488.06;;;-0.31;100.00
13867;BME280;7003;46.982;15.248;2023-02-08T11:51:27;99485.84;;;-0.28;99.38
13867;BME280;7003;46.982;15.248;2023-02-08T11:53:57;99491.06;;;-0.34;99.19
13867;BME280;7003;46.982;15.248;2023-02-08T11:56:30;99491.34;;;-0.03;94.15
13867;BME280;7003;46.982;15.248;2023-02-08T11:59:04;99491.16;;;0.05;97.26
13867;BME280;7003;46.982;15.248;2023-02-08T12:01:36;99486.72;;;0.25;97.59
13867;BME280;7003;46.982;15.248;2023-02-08T12:04:08;99487.31;;;0.67;89.72
13867;BME280;7003;46.982;15.248;2023-02-08T12:07:06;99473.56;;;0.78;84.78
13867;BME280;7003;46.982;15.248;2023-02-08T12:12:56;99470.91;;;1.04;83.97
13867;BME280;7003;46.982;15.248;2023-02-08T12:15:35;99466.13;;;1.33;81.80
13867;BME280;7003;46.982;15.248;2023-02-08T12:18:30;99467.72;;;1.40;80.91
13867;BME280;7003;46.982;15.248;2023-02-08T12:21:05;99461.13;;;1.25;75.29
13867;BME280;7003;46.982;15.248;2023-02-08T12:23:48;99468.66;;;1.14;77.92
13867;BME280;7003;46.982;15.248;2023-02-08T12:26:22;99459.41;;;1.50;78.70
13867;BME280;7003;46.982;15.248;2023-02-08T12:29:14;99464.81;;;1.55;77.00
13867;BME280;7003;46.982;15.248;2023-02-08T12:31:59;99452.53;;;1.49;77.28
13867;BME280;7003;46.982;15.248;2023-02-08T12:34:45;99448.03;;;1.63;77.01
13867;BME280;7003;46.982;15.248;2023-02-08T12:37:27;99449.03;;;1.68;76.42
13867;BME280;7003;46.982;15.248;2023-02-08T12:40:29;99448.13;;;1.81;74.34
13867;BME280;7003;46.982;15.248;2023-02-08T12:43:35;99454.81;;;1.77;74.62
13867;BME280;7003;46.982;15.248;2023-02-08T12:46:24;99453.31;;;1.87;73.29
13867;BME280;7003;46.982;15.248;2023-02-08T12:49:21;99449.56;;;1.77;70.24
13867;BME280;7003;46.982;15.248;2023-02-08T12:52:02;99438.22;;;1.83;69.88
13867;BME280;7003;46.982;15.248;2023-02-08T12:54:41;99437.91;;;1.35;65.02
13867;BME280;7003;46.982;15.248;2023-02-08T12:57:11;99439.25;;;1.06;69.48
13867;BME280;7003;46.982;15.248;2023-02-08T12:59:44;99436.97;;;1.23;69.72
13867;BME280;7003;46.982;15.248;2023-02-08T13:02:20;99434.19;;;1.49;67.57
13867;BME280;7003;46.982;15.248;2023-02-08T13:04:51;99433.88;;;1.32;64.43
13867;BME280;7003;46.982;15.248;2023-02-08T13:07:25;99428.19;;;1.42;67.19
13867;BME280;7003;46.982;15.248;2023-02-08T13:09:59;99427.88;;;1.57;67.81
13867;BME280;7003;46.982;15.248;2023-02-08T13:12:31;99426.97;;;1.44;66.22
13867;BME280;7003;46.982;15.248;2023-02-08T13:15:06;99424.72;;;1.48;67.19
13867;BME280;7003;46.982;15.248;2023-02-08T13:17:42;99425.91;;;1.52;66.74
13867;BME280;7003;46.982;15.248;2023-02-08T13:20:22;99417.97;;;1.27;66.53
13867;BME280;7003;46.982;15.248;2023-02-08T13:22:56;99415.63;;;1.12;65.79
13867;BME280;7003;46.982;15.248;2023-02-08T13:25:31;99419.53;;;1.35;67.56
13867;BME280;7003;46.982;15.248;2023-02-08T13:28:02;99423.94;;;1.41;70.38
13867;BME280;7003;46.982;15.248;2023-02-08T13:30:31;99421.16;;;1.36;69.00
13867;BME280;7003;46.982;15.248;2023-02-08T13:33:04;99430.34;;;1.51;69.18
13867;BME280;7003;46.982;15.248;2023-02-08T13:35:38;99423.41;;;1.26;70.51
13867;BME280;7003;46.982;15.248;2023-02-08T13:38:17;99425.31;;;1.12;69.43
13867;BME280;7003;46.982;15.248;2023-02-08T13:41:02;99436.81;;;1.04;69.75
13867;BME280;7003;46.982;15.248;2023-02-08T13:43:35;99426.47;;;1.23;70.57
13867;BME280;7003;46.982;15.248;2023-02-08T13:46:09;99424.84;;;1.22;70.35
13867;BME280;7003;46.982;15.248;2023-02-08T13:48:43;99419.53;;;1.35;68.96
13867;BME280;7003;46.982;15.248;2023-02-08T13:54:25;99420.38;;;0.84;67.67
13867;BME280;7003;46.982;15.248;2023-02-08T13:56:55;99420.38;;;0.84;68.57
13867;BME280;7003;46.982;15.248;2023-02-08T13:59:32;99418.34;;;0.86;67.66
13867;BME280;7003;46.982;15.248;2023-02-08T14:02:28;99427.84;;;0.81;69.34
13867;BME280;7003;46.982;15.248;2023-02-08T14:05:33;99416.66;;;0.27;70.36
13867;BME280;7003;46.982;15.248;2023-02-08T14:08:18;99422.88;;;0.53;70.96
13867;BME280;7003;46.982;15.248;2023-02-08T14:11:01;99420.25;;;0.53;69.29
13867;BME280;7003;46.982;15.248;2023-02-08T14:13:34;99413.22;;;0.33;69.76
13867;BME280;7003;46.982;15.248;2023-02-08T14:16:26;99408.41;;;0.37;69.93
13867;BME280;7003;46.982;15.248;2023-02-08T14:18:57;99409.34;;;0.56;70.75
13867;BME280;7003;46.982;15.248;2023-02-08T14:21:33;99416.50;;;0.93;68.72
13867;BME280;7003;46.982;15.248;2023-02-08T14:24:06;99419.78;;;0.82;69.49
13867;BME280;7003;46.982;15.248;2023-02-08T14:26:36;99417.84;;;0.51;70.20
13867;BME280;7003;46.982;15.248;2023-02-08T14:29:07;99424.22;;;0.75;71.70
13867;BME280;7003;46.982;15.248;2023-02-08T14:31:38;99417.63;;;1.10;70.07
13867;BME280;7003;46.982;15.248;2023-02-08T14:34:21;99415.78;;;1.17;68.76
13867;BME280;7003;46.982;15.248;2023-02-08T14:37:01;99416.19;;;1.21;67.41
13867;BME280;7003;46.982;15.248;2023-02-08T14:39:33;99419.50;;;0.97;68.81
13867;BME280;7003;46.982;15.248;2023-02-08T14:42:03;99412.50;;;0.84;69.58
13867;BME280;7003;46.982;15.248;2023-02-08T14:45:03;99410.44;;;0.99;70.33
13867;BME280;7003;46.982;15.248;2023-02-08T14:48:18;99410.63;;;1.04;69.83
13867;BME280;7003;46.982;15.248;2023-02-08T14:50:56;99412.34;;;0.66;72.12
13867;BME280;7003;46.982;15.248;2023-02-08T14:53:38;99416.16;;;0.70;73.25
13867;BME280;7003;46.982;15.248;2023-02-08T14:56:15;99405.78;;;0.30;75.29
13867;BME280;7003;46.982;15.248;2023-02-08T14:58:48;99407.22;;;0.13;76.90
13867;BME280;7003;46.982;15.248;2023-02-08T15:01:21;99408.41;;;0.11;77.82
13867;BME280;7003;46.982;15.248;2023-02-08T15:03:57;99402.19;;;-0.08;78.12
13867;BME280;7003;46.982;15.248;2023-02-08T15:09:33;99401.16;;;-0.20;79.34
13867;BME280;7003;46.982;15.248;2023-02-08T15:12:12;99398.75;;;-0.22;82.68
13867;BME280;7003;46.982;15.248;2023-02-08T15:14:43;99407.63;;;-0.16;84.05
13867;BME280;7003;46.982;15.248;2023-02-08T15:17:30;99400.34;;;-0.27;85.04
13867;BME280;7003;46.982;15.248;2023-02-08T15:20:00;99398.94;;;-0.36;83.80
13867;BME280;7003;46.982;15.248;2023-02-08T15:22:34;99398.13;;;-0.57;83.23
13867;BME280;7003;46.982;15.248;2023-02-08T15:25:20;99406.31;;;-0.73;80.30
13867;BME280;7003;46.982;15.248;2023-02-08T15:27:52;99405.72;;;-0.68;80.75
13867;BME280;7003;46.982;15.248;2023-02-08T15:30:32;99411.75;;;-0.68;81.04
13867;BME280;7003;46.982;15.248;2023-02-08T15:33:08;99412.16;;;-0.71;83.82
13867;BME280;7003;46.982;15.248;2023-02-08T15:35:37;99417.59;;;-1.13;87.09
13867;BME280;7003;46.982;15.248;2023-02-08T15:38:14;99421.59;;;-1.24;90.00
13867;BME280;7003;46.982;15.248;2023-02-08T15:40:59;99429.19;;;-1.29;88.43
13867;BME280;7003;46.982;15.248;2023-02-08T15:43:28;99417.69;;;-1.69;94.29
13867;BME280;7003;46.982;15.248;2023-02-08T15:45:56;99424.81;;;-1.84;98.10
13867;BME280;7003;46.982;15.248;2023-02-08T15:48:31;99428.25;;;-1.56;97.46
13867;BME280;7003;46.982;15.248;2023-02-08T15:51:00;99423.59;;;-1.88;96.65
13867;BME280;7003;46.982;15.248;2023-02-08T15:53:30;99435.06;;;-1.83;97.10
13867;BME280;7003;46.982;15.248;2023-02-08T15:56:02;99431.16;;;-1.94;95.74
13867;BME280;7003;46.982;15.248;2023-02-08T15:58:34;99427.22;;;-1.83;93.81
13867;BME280;7003;46.982;15.248;2023-02-08T16:01:06;99429.63;;;-1.88;95.33
13867;BME280;7003;46.982;15.248;2023-02-08T16:03:37;99431.50;;;-2.24;100.00
13867;BME280;7003;46.982;15.248;2023-02-08T16:06:06;99428.88;;;-2.24;100.00
13867;BME280;7003;46.982;15.248;2023-02-08T16:08:40;99428.84;;;-2.10;98.55
13867;BME280;7003;46.982;15.248;2023-02-08T16:11:11;99428.47;;;-2.28;99.86
13867;BME280;7003;46.982;15.248;2023-02-08T16:13:46;99431.38;;;-2.16;97.73
13867;BME280;7003;46.982;15.248;2023-02-08T16:16:17;99435.81;;;-2.17;98.81
13867;BME280;7003;46.982;15.248;2023-02-08T16:18:48;99439.13;;;-2.02;95.90
13867;BME280;7003;46.982;15.248;2023-02-08T16:21:28;99445.50;;;-1.83;93.65
13867;BME280;7003;46.982;15.248;2023-02-08T16:23:58;99446.03;;;-1.94;94.43
13867;BME280;7003;46.982;15.248;2023-02-08T16:26:30;99439.69;;;-2.06;100.00
13867;BME280;7003;46.982;15.248;2023-02-08T16:29:02;99440.50;;;-2.06;100.00
13867;BME280;7003;46.982;15.248;2023-02-08T16:31:32;99442.13;;;-2.05;100.00
13867;BME280;7003;46.982;15.248;2023-02-08T16:34:03;99444.72;;;-2.05;100.00
13867;BME280;7003;46.982;15.248;2023-02-08T16:36:34;99441.13;;;-2.04;100.00
13867;BME280;7003;46.982;15.248;2023-02-08T16:42:30;99444.16;;;-2.00;100.00
13867;BME280;7003;46.982;15.248;2023-02-08T16:47:46;99437.19;;;-1.93;100.00
13867;BME280;7003;46.982;15.248;2023-02-08T16:50:19;99438.19;;;-1.94;100.00
13867;BME280;7003;46.982;15.248;2023-02-08T16:52:52;99439.13;;;-2.02;100.00
13867;BME280;7003;46.982;15.248;2023-02-08T16:55:24;99439.75;;;-2.00;100.00
13867;BME280;7003;46.982;15.248;2023-02-08T16:57:55;99445.13;;;-2.01;100.00
13867;BME280;7003;46.982;15.248;2023-02-08T17:00:27;99443.41;;;-1.94;100.00
13867;BME280;7003;46.982;15.248;2023-02-08T17:02:55;99451.97;;;-2.00;100.00
13867;BME280;7003;46.982;15.248;2023-02-08T17:05:26;99445.34;;;-2.03;100.00
13867;BME280;7003;46.982;15.248;2023-02-08T17:07:54;99453.97;;;-2.02;100.00
13867;BME280;7003;46.982;15.248;2023-02-08T17:10:26;99459.63;;;-1.99;100.00
13867;BME280;7003;46.982;15.248;2023-02-08T17:12:57;99458.25;;;-1.95;100.00
13867;BME280;7003;46.982;15.248;2023-02-08T17:15:24;99462.91;;;-1.90;100.00
13867;BME280;7003;46.982;15.248;2023-02-08T17:17:54;99461.16;;;-1.83;100.00
13867;BME280;7003;46.982;15.248;2023-02-08T17:20:23;99456.97;;;-1.77;100.00
13867;BME280;7003;46.982;15.248;2023-02-08T17:22:56;99462.94;;;-1.83;100.00
13867;BME280;7003;46.982;15.248;2023-02-08T17:25:27;99465.88;;;-1.93;100.00
13867;BME280;7003;46.982;15.248;2023-02-08T17:27:57;99469.69;;;-1.96;100.00
13867;BME280;7003;46.982;15.248;2023-02-08T17:30:28;99463.22;;;-2.00;100.00
13867;BME280;7003;46.982;15.248;2023-02-08T17:32:58;99464.41;;;-2.02;100.00
13867;BME280;7003;46.982;15.248;2023-02-08T17:35:27;99465.00;;;-2.00;100.00
13867;BME280;7003;46.982;15.248;2023-02-08T17:37:57;99464.06;;;-1.92;100.00
13867;BME280;7003;46.982;15.248;2023-02-08T17:40:26;99464.06;;;-1.92;100.00
13867;BME280;7003;46.982;15.248;2023-02-08T17:42:54;99467.66;;;-1.94;100.00
13867;BME280;7003;46.982;15.248;2023-02-08T17:45:21;99460.09;;;-1.88;100.00
13867;BME280;7003;46.982;15.248;2023-02-08T17:47:51;99464.94;;;-1.85;100.00
13867;BME280;7003;46.982;15.248;2023-02-08T17:50:22;99469.69;;;-1.96;100.00
13867;BME280;7003;46.982;15.248;2023-02-08T17:52:51;99464.03;;;-1.99;100.00
13867;BME280;7003;46.982;15.248;2023-02-08T17:55:20;99467.63;;;-2.00;100.00
13867;BME280;7003;46.982;15.248;2023-02-08T17:57:49;99460.13;;;-2.10;100.00
13867;BME280;7003;46.982;15.248;2023-02-08T18:00:18;99453.31;;;-2.11;100.00
13867;BME280;7003;46.982;15.248;2023-02-08T18:02:47;99468.06;;;-2.18;100.00
13867;BME280;7003;46.982;15.248;2023-02-08T18:05:16;99455.91;;;-2.11;100.00
13867;BME280;7003;46.982;15.248;2023-02-08T18:07:43;99468.44;;;-2.21;100.00
13867;BME280;7003;46.982;15.248;2023-02-08T18:10:14;99466.63;;;-2.20;100.00
13867;BME280;7003;46.982;15.248;2023-02-08T18:12:42;99459.44;;;-2.18;100.00
13867;BME280;7003;46.982;15.248;2023-02-08T18:15:12;99457.78;;;-2.26;100.00
13867;BME280;7003;46.982;15.248;2023-02-08T18:17:40;99460.63;;;-2.21;100.00
13867;BME280;7003;46.982;15.248;2023-02-08T18:20:09;99463.41;;;-2.22;100.00
13867;BME280;7003;46.982;15.248;2023-02-08T18:22:38;99469.59;;;-2.23;100.00
13867;BME280;7003;46.982;15.248;2023-02-08T18:25:06;99473.66;;;-2.21;100.00
13867;BME280;7003;46.982;15.248;2023-02-08T18:27:34;99478.63;;;-2.26;100.00
13867;BME280;7003;46.982;15.248;2023-02-08T18:30:02;99478.63;;;-2.26;100.00
13867;BME280;7003;46.982;15.248;2023-02-08T18:32:30;99481.03;;;-2.24;100.00
13867;BME280;7003;46.982;15.248;2023-02-08T18:34:59;99472.47;;;-2.18;100.00
13867;BME280;7003;46.982;15.248;2023-02-08T18:37:37;99469.44;;;-2.22;100.00
13867;BME280;7003;46.982;15.248;2023-02-08T18:40:07;99461.41;;;-1.99;100.00
13867;BME280;7003;46.982;15.248;2023-02-08T18:42:35;99466.22;;;-2.03;100.00